<?xml version="1.0" encoding="UTF-8" standalone="no" ?>
<gpx xmlns="http://www.topografix.com/GPX/1/1" xmlns:xsi="http://www.w3.org/2001/XMLSchema-instance" xsi:schemaLocation="http://www.topografix.com/GPX/1/1 http://www.topografix.com/GPX/1/1/gpx.xsd" version="1.1" creator="VisuGPX - https://www.visugpx.com">
  <metadata>
    <name>Vouvant_MerventAutour_19-22km</name>
    <desc><![CDATA[gnerando idor:8031793_8985849_8987074_9131938]]></desc>
  </metadata>
  <trk>
    <name><![CDATA[Vouvant_Foret_22.5km-8031793]]></name>
    <extensions>
      <line xmlns="http://www.topografix.com/GPX/gpx_style/0/2">
        <color>0000FF</color>
        <width>4</width>
      </line>
    </extensions>
    <trkseg>
      <trkpt lat="46.57247" lon="-0.77096">
        <ele>68</ele>
        <time>2023-11-14T12:04:58Z</time>
      </trkpt>
      <trkpt lat="46.57178" lon="-0.77076">
        <ele>67</ele>
        <time>2023-11-14T12:06:32Z</time>
      </trkpt>
      <trkpt lat="46.57237" lon="-0.76938">
        <ele>70</ele>
        <time>2023-11-14T12:09:01Z</time>
      </trkpt>
      <trkpt lat="46.5719" lon="-0.76797">
        <ele>61</ele>
        <time>2023-11-14T12:11:25Z</time>
      </trkpt>
      <trkpt lat="46.57202" lon="-0.76646">
        <ele>54</ele>
        <time>2023-11-14T12:13:44Z</time>
      </trkpt>
      <trkpt lat="46.57042" lon="-0.76471">
        <ele>76</ele>
        <time>2023-11-14T12:18:11Z</time>
      </trkpt>
      <trkpt lat="46.56789" lon="-0.76689">
        <ele>79</ele>
        <time>2023-11-14T12:24:44Z</time>
      </trkpt>
      <trkpt lat="46.56641" lon="-0.76668">
        <ele>77</ele>
        <time>2023-11-14T12:28:02Z</time>
      </trkpt>
      <trkpt lat="46.5647" lon="-0.76758">
        <ele>77</ele>
        <time>2023-11-14T12:32:05Z</time>
      </trkpt>
      <trkpt lat="46.56131" lon="-0.76608">
        <ele>76</ele>
        <time>2023-11-14T12:39:58Z</time>
      </trkpt>
      <trkpt lat="46.55968" lon="-0.76638">
        <ele>77</ele>
        <time>2023-11-14T12:43:37Z</time>
      </trkpt>
      <trkpt lat="46.55983" lon="-0.76428">
        <ele>80</ele>
        <time>2023-11-14T12:46:51Z</time>
      </trkpt>
      <trkpt lat="46.55951" lon="-0.7626">
        <ele>82</ele>
        <time>2023-11-14T12:49:31Z</time>
      </trkpt>
      <trkpt lat="46.56084" lon="-0.75865">
        <ele>89</ele>
        <time>2023-11-14T12:56:14Z</time>
      </trkpt>
      <trkpt lat="46.55883" lon="-0.75728">
        <ele>88</ele>
        <time>2023-11-14T13:01:10Z</time>
      </trkpt>
      <trkpt lat="46.55948" lon="-0.75505">
        <ele>88</ele>
        <time>2023-11-14T13:04:53Z</time>
      </trkpt>
      <trkpt lat="46.55685" lon="-0.75466">
        <ele>78</ele>
        <time>2023-11-14T13:10:45Z</time>
      </trkpt>
      <trkpt lat="46.55535" lon="-0.75312">
        <ele>80</ele>
        <time>2023-11-14T13:14:50Z</time>
      </trkpt>
      <trkpt lat="46.55278" lon="-0.75338">
        <ele>78</ele>
        <time>2023-11-14T13:20:34Z</time>
      </trkpt>
      <trkpt lat="46.55104" lon="-0.75217">
        <ele>77</ele>
        <time>2023-11-14T13:24:52Z</time>
      </trkpt>
      <trkpt lat="46.55178" lon="-0.74848">
        <ele>73</ele>
        <time>2023-11-14T13:30:44Z</time>
      </trkpt>
      <trkpt lat="46.55175" lon="-0.74732">
        <ele>68</ele>
        <time>2023-11-14T13:32:31Z</time>
      </trkpt>
      <trkpt lat="46.55372" lon="-0.74526">
        <ele>65</ele>
        <time>2023-11-14T13:37:55Z</time>
      </trkpt>
      <trkpt lat="46.55337" lon="-0.74462">
        <ele>62</ele>
        <time>2023-11-14T13:39:10Z</time>
      </trkpt>
      <trkpt lat="46.55443" lon="-0.74342">
        <ele>68</ele>
        <time>2023-11-14T13:42:09Z</time>
      </trkpt>
      <trkpt lat="46.55455" lon="-0.74248">
        <ele>69</ele>
        <time>2023-11-14T13:43:37Z</time>
      </trkpt>
      <trkpt lat="46.5557" lon="-0.74132">
        <ele>72</ele>
        <time>2023-11-14T13:46:44Z</time>
      </trkpt>
      <trkpt lat="46.55496" lon="-0.74029">
        <ele>69</ele>
        <time>2023-11-14T13:49:00Z</time>
      </trkpt>
      <trkpt lat="46.5552" lon="-0.7375">
        <ele>78</ele>
        <time>2023-11-14T13:53:18Z</time>
      </trkpt>
      <trkpt lat="46.55777" lon="-0.73308">
        <ele>87</ele>
        <time>2023-11-14T14:02:09Z</time>
      </trkpt>
      <trkpt lat="46.55936" lon="-0.73012">
        <ele>88</ele>
        <time>2023-11-14T14:07:54Z</time>
      </trkpt>
      <trkpt lat="46.5626" lon="-0.71814">
        <ele>106</ele>
        <time>2023-11-14T14:27:35Z</time>
      </trkpt>
      <trkpt lat="46.56246" lon="-0.71677">
        <ele>107</ele>
        <time>2023-11-14T14:29:42Z</time>
      </trkpt>
      <trkpt lat="46.56178" lon="-0.71544">
        <ele>108</ele>
        <time>2023-11-14T14:32:14Z</time>
      </trkpt>
      <trkpt lat="46.55213" lon="-0.71569">
        <ele>97</ele>
        <time>2023-11-14T14:53:42Z</time>
      </trkpt>
      <trkpt lat="46.55233" lon="-0.71501">
        <ele>100</ele>
        <time>2023-11-14T14:54:50Z</time>
      </trkpt>
      <trkpt lat="46.55127" lon="-0.71437">
        <ele>99</ele>
        <time>2023-11-14T14:57:23Z</time>
      </trkpt>
      <trkpt lat="46.55027" lon="-0.71402">
        <ele>95</ele>
        <time>2023-11-14T14:59:41Z</time>
      </trkpt>
      <trkpt lat="46.54924" lon="-0.71222">
        <ele>91</ele>
        <time>2023-11-14T15:03:16Z</time>
      </trkpt>
      <trkpt lat="46.54779" lon="-0.70934">
        <ele>88</ele>
        <time>2023-11-14T15:08:43Z</time>
      </trkpt>
      <trkpt lat="46.54617" lon="-0.70969">
        <ele>91</ele>
        <time>2023-11-14T15:12:22Z</time>
      </trkpt>
      <trkpt lat="46.54558" lon="-0.71046">
        <ele>90</ele>
        <time>2023-11-14T15:14:07Z</time>
      </trkpt>
      <trkpt lat="46.54478" lon="-0.70883">
        <ele>92</ele>
        <time>2023-11-14T15:17:11Z</time>
      </trkpt>
      <trkpt lat="46.54422" lon="-0.70922">
        <ele>91</ele>
        <time>2023-11-14T15:18:34Z</time>
      </trkpt>
      <trkpt lat="46.54319" lon="-0.70759">
        <ele>89</ele>
        <time>2023-11-14T15:21:57Z</time>
      </trkpt>
      <trkpt lat="46.54268" lon="-0.7054">
        <ele>92</ele>
        <time>2023-11-14T15:25:30Z</time>
      </trkpt>
      <trkpt lat="46.54428" lon="-0.70475">
        <ele>94</ele>
        <time>2023-11-14T15:29:11Z</time>
      </trkpt>
      <trkpt lat="46.54372" lon="-0.70183">
        <ele>89</ele>
        <time>2023-11-14T15:33:49Z</time>
      </trkpt>
      <trkpt lat="46.5454" lon="-0.70102">
        <ele>90</ele>
        <time>2023-11-14T15:37:46Z</time>
      </trkpt>
      <trkpt lat="46.54664" lon="-0.70115">
        <ele>94</ele>
        <time>2023-11-14T15:40:32Z</time>
      </trkpt>
      <trkpt lat="46.54847" lon="-0.70424">
        <ele>100</ele>
        <time>2023-11-14T15:46:46Z</time>
      </trkpt>
      <trkpt lat="46.54953" lon="-0.70471">
        <ele>100</ele>
        <time>2023-11-14T15:49:14Z</time>
      </trkpt>
      <trkpt lat="46.54944" lon="-0.70535">
        <ele>99</ele>
        <time>2023-11-14T15:50:14Z</time>
      </trkpt>
      <trkpt lat="46.55136" lon="-0.70698">
        <ele>92</ele>
        <time>2023-11-14T15:55:10Z</time>
      </trkpt>
      <trkpt lat="46.55178" lon="-0.7069">
        <ele>92</ele>
        <time>2023-11-14T15:56:07Z</time>
      </trkpt>
      <trkpt lat="46.55251" lon="-0.70741">
        <ele>94</ele>
        <time>2023-11-14T15:57:55Z</time>
      </trkpt>
      <trkpt lat="46.55493" lon="-0.7051">
        <ele>104</ele>
        <time>2023-11-14T16:04:21Z</time>
      </trkpt>
      <trkpt lat="46.55591" lon="-0.70119">
        <ele>106</ele>
        <time>2023-11-14T16:10:43Z</time>
      </trkpt>
      <trkpt lat="46.55638" lon="-0.69617">
        <ele>108</ele>
        <time>2023-11-14T16:18:28Z</time>
      </trkpt>
      <trkpt lat="46.55703" lon="-0.69497">
        <ele>108</ele>
        <time>2023-11-14T16:20:48Z</time>
      </trkpt>
      <trkpt lat="46.55771" lon="-0.70535">
        <ele>111</ele>
        <time>2023-11-14T16:36:45Z</time>
      </trkpt>
      <trkpt lat="46.55877" lon="-0.70471">
        <ele>116</ele>
        <time>2023-11-14T16:39:18Z</time>
      </trkpt>
      <trkpt lat="46.56485" lon="-0.70415">
        <ele>105</ele>
        <time>2023-11-14T16:52:51Z</time>
      </trkpt>
      <trkpt lat="46.56411" lon="-0.69256">
        <ele>118</ele>
        <time>2023-11-14T17:10:39Z</time>
      </trkpt>
      <trkpt lat="46.5665" lon="-0.69244">
        <ele>125</ele>
        <time>2023-11-14T17:15:58Z</time>
      </trkpt>
      <trkpt lat="46.56674" lon="-0.69613">
        <ele>120</ele>
        <time>2023-11-14T17:21:38Z</time>
      </trkpt>
      <trkpt lat="46.5683" lon="-0.70299">
        <ele>118</ele>
        <time>2023-11-14T17:32:41Z</time>
      </trkpt>
      <trkpt lat="46.56833" lon="-0.70995">
        <ele>120</ele>
        <time>2023-11-14T17:43:20Z</time>
      </trkpt>
      <trkpt lat="46.56948" lon="-0.71514">
        <ele>118</ele>
        <time>2023-11-14T17:51:40Z</time>
      </trkpt>
      <trkpt lat="46.57107" lon="-0.72136">
        <ele>111</ele>
        <time>2023-11-14T18:01:49Z</time>
      </trkpt>
      <trkpt lat="46.57155" lon="-0.72823">
        <ele>99</ele>
        <time>2023-11-14T18:12:22Z</time>
      </trkpt>
      <trkpt lat="46.57217" lon="-0.72814">
        <ele>97</ele>
        <time>2023-11-14T18:13:45Z</time>
      </trkpt>
      <trkpt lat="46.57311" lon="-0.72673">
        <ele>89</ele>
        <time>2023-11-14T18:16:46Z</time>
      </trkpt>
      <trkpt lat="46.57435" lon="-0.73063">
        <ele>82</ele>
        <time>2023-11-14T18:23:20Z</time>
      </trkpt>
      <trkpt lat="46.57166" lon="-0.73239">
        <ele>94</ele>
        <time>2023-11-14T18:29:53Z</time>
      </trkpt>
      <trkpt lat="46.57246" lon="-0.7384">
        <ele>92</ele>
        <time>2023-11-14T18:39:15Z</time>
      </trkpt>
      <trkpt lat="46.57243" lon="-0.74213">
        <ele>94</ele>
        <time>2023-11-14T18:44:57Z</time>
      </trkpt>
      <trkpt lat="46.57337" lon="-0.74951">
        <ele>79</ele>
        <time>2023-11-14T18:56:26Z</time>
      </trkpt>
      <trkpt lat="46.57482" lon="-0.75758">
        <ele>83</ele>
        <time>2023-11-14T19:09:11Z</time>
      </trkpt>
      <trkpt lat="46.57175" lon="-0.76659">
        <ele>52</ele>
        <time>2023-11-14T19:24:33Z</time>
      </trkpt>
      <trkpt lat="46.5719" lon="-0.76861">
        <ele>66</ele>
        <time>2023-11-14T19:27:40Z</time>
      </trkpt>
      <trkpt lat="46.57166" lon="-0.77123">
        <ele>61</ele>
        <time>2023-11-14T19:31:42Z</time>
      </trkpt>
      <trkpt lat="46.5729" lon="-0.77063">
        <ele>69</ele>
        <time>2023-11-14T19:34:37Z</time>
      </trkpt>
    </trkseg>
  </trk>
</gpx>